Time;durP1;ratioP1;P1;durP2;ratioP2;P2;SDS_P1;SDS_P2;PMS_P1;PMS_P2;Temp;Humidity;BMP_temperature;BMP_pressure;BME280_temperature;BME280_humidity;BME280_pressure;Samples;Min_cycle;Max_cycle;Signal;HPM_P1;HPM_P2
2022/11/20 00:01:56;;;;;;;7.85;7.15;;;;;;;;;;5152061;27;20404;-91
2022/11/20 00:04:22;;;;;;;8.70;7.95;;;;;;;;;;5151972;27;20397;-92
2022/11/20 00:06:48;;;;;;;8.17;7.50;;;;;;;;;;5163085;27;20376;-91
2022/11/20 00:09:14;;;;;;;8.65;7.95;;;;;;;;;;5144353;27;20411;-90
2022/11/20 00:11:40;;;;;;;9.45;8.70;;;;;;;;;;5125359;28;20380;-91
2022/11/20 00:14:06;;;;;;;9.32;8.63;;;;;;;;;;5131622;27;20385;-91
2022/11/20 00:16:33;;;;;;;9.27;8.55;;;;;;;;;;5128001;27;20379;-91
2022/11/20 00:18:59;;;;;;;9.40;8.50;;;;;;;;;;5134556;27;20454;-91
2022/11/20 00:21:26;;;;;;;9.80;8.90;;;;;;;;;;5133663;27;20817;-91
2022/11/20 00:23:53;;;;;;;10.48;9.52;;;;;;;;;;5143411;27;20384;-92
2022/11/20 00:26:20;;;;;;;10.80;9.80;;;;;;;;;;5117730;27;20878;-91
2022/11/20 00:28:53;;;;;;;10.43;9.50;;;;;;;;;;5139105;27;20373;-91
2022/11/20 00:31:19;;;;;;;10.45;9.45;;;;;;;;;;5147693;27;20416;-90
2022/11/20 00:33:46;;;;;;;10.75;9.77;;;;;;;;;;5133136;27;20370;-91
2022/11/20 00:36:13;;;;;;;10.65;9.70;;;;;;;;;;5130094;27;20851;-91
2022/11/20 00:38:39;;;;;;;11.40;9.18;;;;;;;;;;5147388;27;20396;-91
2022/11/20 00:41:07;;;;;;;10.70;9.70;;;;;;;;;;5130526;27;20853;-91
2022/11/20 00:43:33;;;;;;;10.65;9.60;;;;;;;;;;5130740;27;20379;-91
2022/11/20 00:46:00;;;;;;;10.05;9.13;;;;;;;;;;5131514;27;20379;-92
2022/11/20 00:48:26;;;;;;;10.27;9.13;;;;;;;;;;5132899;27;20467;-91
2022/11/20 00:50:53;;;;;;;9.50;8.70;;;;;;;;;;5132413;27;20482;-91
2022/11/20 00:53:19;;;;;;;9.38;8.57;;;;;;;;;;5143003;27;20396;-90
2022/11/20 00:55:53;;;;;;;9.55;8.68;;;;;;;;;;5136819;27;20379;-91
2022/11/20 00:58:19;;;;;;;9.38;8.48;;;;;;;;;;5132709;27;20900;-91
2022/11/20 01:00:45;;;;;;;8.95;8.23;;;;;;;;;;5132461;27;20375;-91
2022/11/20 01:03:11;;;;;;;8.90;8.00;;;;;;;;;;5132317;27;20383;-91
2022/11/20 01:05:37;;;;;;;7.53;6.93;;;;;;;;;;5132200;27;20416;-91
2022/11/20 01:08:03;;;;;;;7.43;6.53;;;;;;;;;;5146811;27;20443;-91
2022/11/20 01:10:29;;;;;;;6.57;5.97;;;;;;;;;;5144815;27;20393;-91
2022/11/20 01:15:40;;;;;;;6.10;5.60;;;;;;;;;;5123929;27;20427;-91
2022/11/20 01:18:06;;;;;;;6.30;5.68;;;;;;;;;;5132513;27;20374;-90
2022/11/20 01:20:35;;;;;;;5.93;5.43;;;;;;;;;;5142658;27;20376;-90
2022/11/20 01:23:02;;;;;;;5.53;5.13;;;;;;;;;;5121382;27;20915;-91
2022/11/20 01:25:28;;;;;;;5.95;5.50;;;;;;;;;;5133301;27;20406;-91
2022/11/20 01:27:54;;;;;;;5.63;5.23;;;;;;;;;;5136349;27;20370;-91
2022/11/20 01:30:20;;;;;;;5.55;5.13;;;;;;;;;;5127358;27;20468;-91
2022/11/20 01:32:46;;;;;;;5.82;5.22;;;;;;;;;;5136343;27;20370;-91
2022/11/20 01:35:12;;;;;;;5.75;5.03;;;;;;;;;;5136243;27;20973;-92
2022/11/20 01:37:38;;;;;;;5.72;5.22;;;;;;;;;;5129135;27;20392;-91
2022/11/20 01:40:04;;;;;;;5.70;5.20;;;;;;;;;;5142427;27;20375;-90
2022/11/20 01:45:41;;;;;;;5.88;4.68;;;;;;;;;;5111116;27;20445;-90
2022/11/20 01:48:07;;;;;;;5.85;5.35;;;;;;;;;;5124876;27;20437;-91
2022/11/20 01:50:33;;;;;;;5.32;4.82;;;;;;;;;;5135732;27;20819;-91
2022/11/20 01:53:02;;;;;;;5.63;5.13;;;;;;;;;;5143671;27;20361;-92
2022/11/20 01:55:32;;;;;;;5.80;5.30;;;;;;;;;;5142276;27;20371;-91
2022/11/20 01:57:59;;;;;;;5.50;5.00;;;;;;;;;;5121868;27;20407;-92
2022/11/20 02:00:25;;;;;;;5.80;4.85;;;;;;;;;;5117734;27;20858;-88
2022/11/20 02:02:57;;;;;;;6.38;5.25;;;;;;;;;;5136130;27;20388;-92
2022/11/20 02:05:27;;;;;;;5.80;5.20;;;;;;;;;;5147291;27;20452;-93
2022/11/20 02:07:55;;;;;;;4.80;4.40;;;;;;;;;;5119406;27;20432;-92
2022/11/20 02:10:21;;;;;;;5.13;4.70;;;;;;;;;;5114935;28;20426;-93
2022/11/20 02:15:33;;;;;;;5.77;5.27;;;;;;;;;;5128808;27;20428;-92
2022/11/20 02:17:59;;;;;;;5.53;5.03;;;;;;;;;;5135469;27;20456;-93
2022/11/20 02:20:25;;;;;;;6.00;5.40;;;;;;;;;;5135407;27;20390;-90
2022/11/20 02:22:55;;;;;;;6.22;5.38;;;;;;;;;;5135411;27;20379;-94
2022/11/20 02:25:21;;;;;;;6.35;5.82;;;;;;;;;;5135302;27;20431;-93
2022/11/20 02:27:48;;;;;;;6.53;5.93;;;;;;;;;;5135358;27;20469;-92
2022/11/20 02:30:13;;;;;;;5.72;5.15;;;;;;;;;;5146501;27;20388;-93
2022/11/20 02:32:40;;;;;;;7.60;5.60;;;;;;;;;;5143729;27;20907;-92
2022/11/20 02:35:18;;;;;;;5.57;5.10;;;;;;;;;;5135004;27;20402;-92
2022/11/20 02:37:45;;;;;;;5.65;5.15;;;;;;;;;;5147187;27;20780;-92
2022/11/20 02:40:11;;;;;;;6.35;5.78;;;;;;;;;;5129428;27;20378;-92
2022/11/20 02:42:37;;;;;;;6.18;5.65;;;;;;;;;;5132864;27;20385;-92
2022/11/20 02:45:07;;;;;;;6.72;6.10;;;;;;;;;;5114245;28;20380;-91
2022/11/20 02:47:33;;;;;;;7.28;6.68;;;;;;;;;;5144746;27;20451;-92
2022/11/20 02:49:59;;;;;;;7.25;6.55;;;;;;;;;;5136366;27;20402;-93
2022/11/20 02:52:25;;;;;;;7.10;6.50;;;;;;;;;;5134699;27;20381;-92
2022/11/20 02:54:51;;;;;;;6.75;6.15;;;;;;;;;;5131504;27;20379;-93
2022/11/20 02:57:17;;;;;;;6.05;5.55;;;;;;;;;;5134528;27;20374;-93
2022/11/20 02:59:43;;;;;;;5.43;4.93;;;;;;;;;;5141500;27;20421;-93
2022/11/20 03:02:09;;;;;;;5.20;4.70;;;;;;;;;;5129147;27;20883;-93
2022/11/20 03:04:35;;;;;;;5.07;4.60;;;;;;;;;;5124195;27;20379;-93
2022/11/20 03:07:01;;;;;;;5.20;4.80;;;;;;;;;;5134806;27;20512;-92
2022/11/20 03:09:27;;;;;;;5.30;4.80;;;;;;;;;;5137283;27;20398;-92
2022/11/20 03:11:53;;;;;;;4.10;3.80;;;;;;;;;;5145948;27;20439;-93
2022/11/20 03:14:19;;;;;;;4.53;4.13;;;;;;;;;;5134256;27;20406;-92
2022/11/20 03:16:45;;;;;;;4.88;4.47;;;;;;;;;;5141498;27;20411;-92
2022/11/20 03:19:11;;;;;;;4.50;4.10;;;;;;;;;;5141760;27;20439;-92
2022/11/20 03:21:37;;;;;;;3.90;3.60;;;;;;;;;;5133844;27;20669;-92
2022/11/20 03:24:03;;;;;;;4.95;4.05;;;;;;;;;;5134173;27;20386;-92
2022/11/20 03:26:29;;;;;;;4.57;4.18;;;;;;;;;;5137449;27;20380;-91
2022/11/20 03:28:57;;;;;;;4.60;4.20;;;;;;;;;;5132570;27;20378;-91
2022/11/20 03:31:25;;;;;;;4.65;4.25;;;;;;;;;;5136683;27;20390;-93
2022/11/20 03:33:51;;;;;;;4.50;4.03;;;;;;;;;;5145998;27;20412;-92
2022/11/20 03:36:18;;;;;;;4.40;4.00;;;;;;;;;;5133657;27;20448;-92
2022/11/20 03:38:44;;;;;;;4.88;4.05;;;;;;;;;;5151824;27;20380;-92
2022/11/20 03:41:17;;;;;;;5.55;4.13;;;;;;;;;;5153595;27;20371;-91
2022/11/20 03:43:47;;;;;;;4.55;4.20;;;;;;;;;;5144730;27;20440;-93
2022/11/20 03:46:13;;;;;;;5.60;5.10;;;;;;;;;;5134800;27;20475;-92
2022/11/20 03:48:39;;;;;;;6.32;5.80;;;;;;;;;;5134910;27;20382;-92
2022/11/20 03:51:12;;;;;;;7.00;6.30;;;;;;;;;;5140015;27;20395;-92
2022/11/20 03:53:39;;;;;;;7.72;7.03;;;;;;;;;;5141787;27;20424;-92
2022/11/20 03:56:05;;;;;;;7.18;6.57;;;;;;;;;;5143705;27;20368;-91
2022/11/20 03:58:31;;;;;;;6.53;5.93;;;;;;;;;;5113711;28;20376;-92
2022/11/20 04:00:57;;;;;;;7.47;6.70;;;;;;;;;;5116113;27;20431;-92
2022/11/20 04:03:23;;;;;;;7.40;6.70;;;;;;;;;;5133745;27;20371;-92
2022/11/20 04:05:49;;;;;;;7.80;7.07;;;;;;;;;;5133447;27;20367;-92
2022/11/20 04:08:15;;;;;;;7.47;6.78;;;;;;;;;;5133441;27;20862;-92
2022/11/20 04:10:41;;;;;;;6.80;6.20;;;;;;;;;;5133085;27;20418;-93
2022/11/20 04:13:07;;;;;;;6.90;6.20;;;;;;;;;;5115085;27;20394;-91
2022/11/20 04:15:33;;;;;;;6.33;5.80;;;;;;;;;;5133350;27;20471;-91
2022/11/20 04:17:59;;;;;;;6.45;5.93;;;;;;;;;;5133152;27;20382;-91
2022/11/20 04:20:28;;;;;;;6.25;5.68;;;;;;;;;;5133053;27;20379;-92
2022/11/20 04:22:54;;;;;;;6.65;5.68;;;;;;;;;;5134179;27;20452;-92
2022/11/20 04:25:20;;;;;;;6.28;5.82;;;;;;;;;;5138202;27;21220;-92
2022/11/20 04:27:46;;;;;;;6.55;5.90;;;;;;;;;;5112392;28;20878;-92
2022/11/20 04:30:12;;;;;;;6.35;5.75;;;;;;;;;;5136610;27;20412;-92
2022/11/20 04:32:38;;;;;;;6.03;5.53;;;;;;;;;;5125606;27;20807;-93
2022/11/20 04:35:05;;;;;;;6.30;5.70;;;;;;;;;;5127404;27;20454;-93
2022/11/20 04:37:30;;;;;;;6.20;5.67;;;;;;;;;;5142294;27;20456;-91
2022/11/20 04:39:56;;;;;;;6.00;5.40;;;;;;;;;;5136427;27;20470;-92
2022/11/20 04:42:28;;;;;;;6.07;5.57;;;;;;;;;;5130864;27;20370;-92
2022/11/20 04:44:55;;;;;;;6.30;5.70;;;;;;;;;;5132312;27;20379;-91
2022/11/20 04:47:21;;;;;;;5.82;5.32;;;;;;;;;;5132004;27;20394;-92
2022/11/20 04:49:47;;;;;;;5.53;5.03;;;;;;;;;;5132564;27;20403;-92
2022/11/20 04:52:13;;;;;;;7.32;5.28;;;;;;;;;;5132475;27;20375;-92
2022/11/20 04:54:39;;;;;;;5.35;4.82;;;;;;;;;;5139718;27;20377;-91
2022/11/20 04:57:04;;;;;;;5.60;5.10;;;;;;;;;;5130576;27;20370;-92
2022/11/20 04:59:30;;;;;;;5.40;4.90;;;;;;;;;;5140696;27;20909;-92
2022/11/20 05:01:56;;;;;;;5.10;4.70;;;;;;;;;;5113723;27;20390;-91
2022/11/20 05:04:22;;;;;;;4.83;4.43;;;;;;;;;;5131759;27;20375;-93
2022/11/20 05:06:49;;;;;;;4.75;4.32;;;;;;;;;;5141678;27;20372;-91
2022/11/20 05:09:15;;;;;;;4.93;4.10;;;;;;;;;;5121490;27;20380;-91
2022/11/20 05:11:41;;;;;;;5.65;4.38;;;;;;;;;;5119138;28;20499;-91
2022/11/20 05:14:08;;;;;;;5.00;4.50;;;;;;;;;;5148225;27;20805;-91
2022/11/20 05:16:35;;;;;;;4.78;4.38;;;;;;;;;;5125684;27;20386;-92
2022/11/20 05:19:01;;;;;;;4.67;4.27;;;;;;;;;;5132273;27;20914;-91
2022/11/20 05:21:27;;;;;;;4.13;3.83;;;;;;;;;;5131930;27;20378;-92
2022/11/20 05:23:53;;;;;;;4.57;4.18;;;;;;;;;;5132094;27;20439;-92
2022/11/20 05:26:21;;;;;;;4.30;3.90;;;;;;;;;;5146647;27;20409;-91
2022/11/20 05:28:47;;;;;;;4.80;4.13;;;;;;;;;;5126215;28;20384;-92
2022/11/20 05:31:18;;;;;;;4.97;4.03;;;;;;;;;;5145777;27;20489;-92
2022/11/20 05:33:44;;;;;;;4.65;4.25;;;;;;;;;;5123487;27;20957;-93
2022/11/20 05:36:11;;;;;;;4.25;3.90;;;;;;;;;;5137830;27;20378;-91
2022/11/20 05:38:37;;;;;;;3.97;3.67;;;;;;;;;;5130587;27;20807;-91
2022/11/20 05:41:13;;;;;;;4.10;3.72;;;;;;;;;;5141519;27;20426;-91
2022/11/20 05:43:40;;;;;;;4.53;3.78;;;;;;;;;;5124749;27;20422;-91
2022/11/20 05:46:06;;;;;;;4.18;3.78;;;;;;;;;;5130313;27;20431;-92
2022/11/20 05:48:33;;;;;;;5.47;4.07;;;;;;;;;;5132008;27;20443;-92
2022/11/20 05:51:00;;;;;;;4.47;4.07;;;;;;;;;;5136666;27;20415;-92
2022/11/20 05:53:26;;;;;;;5.70;4.82;;;;;;;;;;5141330;27;20440;-92
2022/11/20 05:55:59;;;;;;;4.55;4.15;;;;;;;;;;5131464;27;20370;-92
2022/11/20 05:58:25;;;;;;;5.28;4.35;;;;;;;;;;5131892;27;20425;-92
2022/11/20 06:00:51;;;;;;;4.18;3.78;;;;;;;;;;5146195;27;20778;-92
2022/11/20 06:03:17;;;;;;;3.92;3.63;;;;;;;;;;5131720;27;20461;-92
2022/11/20 06:05:43;;;;;;;4.82;4.07;;;;;;;;;;5146526;27;20460;-92
2022/11/20 06:08:09;;;;;;;4.80;4.40;;;;;;;;;;5139878;27;20372;-92
2022/11/20 06:10:35;;;;;;;4.85;4.45;;;;;;;;;;5111334;28;20920;-93
2022/11/20 06:13:01;;;;;;;5.28;4.75;;;;;;;;;;5118717;27;20378;-92
2022/11/20 06:15:27;;;;;;;5.53;4.50;;;;;;;;;;5135454;27;20431;-92
2022/11/20 06:17:53;;;;;;;5.03;4.50;;;;;;;;;;5135372;27;20375;-92
2022/11/20 06:20:20;;;;;;;5.47;4.53;;;;;;;;;;5135673;27;20704;-91
2022/11/20 06:22:46;;;;;;;5.88;4.22;;;;;;;;;;5135321;27;20430;-91
2022/11/20 06:25:12;;;;;;;4.43;4.03;;;;;;;;;;5135217;27;20383;-92
2022/11/20 06:27:38;;;;;;;4.95;4.55;;;;;;;;;;5135236;27;20442;-91
2022/11/20 06:30:04;;;;;;;5.00;4.38;;;;;;;;;;5140374;27;20785;-92
2022/11/20 06:32:30;;;;;;;5.10;4.30;;;;;;;;;;5134941;27;20389;-91
2022/11/20 06:34:56;;;;;;;7.25;4.55;;;;;;;;;;5134799;27;20374;-92
2022/11/20 06:37:22;;;;;;;7.75;4.60;;;;;;;;;;5134872;27;20428;-92
2022/11/20 06:39:48;;;;;;;4.40;4.00;;;;;;;;;;5135299;27;20379;-90
2022/11/20 06:42:14;;;;;;;8.27;5.90;;;;;;;;;;5148550;27;20389;-92
2022/11/20 06:44:40;;;;;;;9.32;6.10;;;;;;;;;;5134865;27;20383;-92
2022/11/20 06:47:06;;;;;;;7.25;6.03;;;;;;;;;;5149222;27;20895;-92
2022/11/20 06:49:34;;;;;;;7.13;6.47;;;;;;;;;;5133204;27;20406;-92
2022/11/20 06:52:00;;;;;;;4.22;3.83;;;;;;;;;;5127624;27;20370;-91
2022/11/20 06:54:26;;;;;;;3.83;3.45;;;;;;;;;;5134585;27;20375;-92
2022/11/20 06:56:52;;;;;;;3.30;3.00;;;;;;;;;;5134546;27;20402;-92
2022/11/20 06:59:17;;;;;;;3.30;3.10;;;;;;;;;;5138138;27;20853;-91
2022/11/20 07:01:43;;;;;;;3.38;2.55;;;;;;;;;;5148706;27;20373;-92
2022/11/20 07:04:09;;;;;;;2.97;2.67;;;;;;;;;;5130146;27;20376;-92
2022/11/20 07:06:36;;;;;;;2.88;2.30;;;;;;;;;;5141032;27;20379;-92
2022/11/20 07:09:02;;;;;;;2.70;2.50;;;;;;;;;;5140070;27;20362;-91
2022/11/20 07:11:27;;;;;;;2.97;2.67;;;;;;;;;;5152439;27;20429;-91
2022/11/20 07:13:53;;;;;;;2.80;2.30;;;;;;;;;;5133316;27;20381;-92
2022/11/20 07:16:19;;;;;;;2.72;2.10;;;;;;;;;;5138386;27;20383;-91
2022/11/20 07:18:45;;;;;;;2.47;2.10;;;;;;;;;;5134421;27;20378;-92
2022/11/20 07:21:11;;;;;;;2.72;2.45;;;;;;;;;;5129673;27;20389;-91
2022/11/20 07:23:38;;;;;;;3.27;2.90;;;;;;;;;;5128382;27;20843;-93
2022/11/20 07:26:05;;;;;;;4.13;3.72;;;;;;;;;;5133945;27;20394;-91
2022/11/20 07:28:31;;;;;;;3.30;3.00;;;;;;;;;;5133254;27;20422;-90
2022/11/20 07:30:57;;;;;;;3.70;2.90;;;;;;;;;;5125378;27;20402;-90
2022/11/20 07:33:23;;;;;;;3.20;2.90;;;;;;;;;;5133693;27;20430;-87
2022/11/20 07:35:49;;;;;;;4.97;4.47;;;;;;;;;;5133527;27;20458;-87
2022/11/20 07:38:15;;;;;;;4.07;2.78;;;;;;;;;;5133544;27;20366;-88
2022/11/20 07:40:41;;;;;;;2.63;2.30;;;;;;;;;;5133588;27;20371;-87
2022/11/20 07:43:07;;;;;;;2.30;2.10;;;;;;;;;;5133486;27;20375;-88
2022/11/20 07:45:33;;;;;;;3.58;2.30;;;;;;;;;;5130229;27;20386;-88
2022/11/20 07:47:59;;;;;;;2.50;2.30;;;;;;;;;;5130453;27;20435;-87
2022/11/20 07:50:25;;;;;;;2.00;1.80;;;;;;;;;;5133049;27;20874;-86
2022/11/20 07:52:52;;;;;;;2.00;1.80;;;;;;;;;;5133281;27;20441;-89
2022/11/20 07:55:18;;;;;;;2.30;1.80;;;;;;;;;;5133331;27;20404;-87
2022/11/20 07:57:44;;;;;;;2.25;1.90;;;;;;;;;;5133083;27;20382;-88
2022/11/20 08:00:11;;;;;;;2.10;1.90;;;;;;;;;;5133136;27;20410;-89
2022/11/20 08:02:39;;;;;;;2.85;2.55;;;;;;;;;;5132923;27;20416;-87
2022/11/20 08:05:05;;;;;;;2.05;1.92;;;;;;;;;;5133003;27;20449;-87
2022/11/20 08:07:35;;;;;;;2.08;1.90;;;;;;;;;;5133011;27;20382;-86
2022/11/20 08:10:01;;;;;;;1.90;1.80;;;;;;;;;;5133150;27;20410;-86
2022/11/20 08:15:12;;;;;;;2.50;2.00;;;;;;;;;;5132892;27;20879;-85
2022/11/20 08:17:38;;;;;;;2.00;1.67;;;;;;;;;;5132738;27;20410;-84
2022/11/20 08:20:04;;;;;;;2.00;1.80;;;;;;;;;;5132544;27;20844;-84
2022/11/20 08:22:30;;;;;;;2.10;1.75;;;;;;;;;;5132682;27;20379;-85
2022/11/20 08:24:56;;;;;;;1.70;1.60;;;;;;;;;;5132573;27;20382;-83
2022/11/20 08:27:22;;;;;;;1.90;1.70;;;;;;;;;;5132582;27;20378;-83
2022/11/20 08:29:48;;;;;;;1.70;1.60;;;;;;;;;;5123353;27;20408;-83
2022/11/20 08:32:14;;;;;;;2.00;1.77;;;;;;;;;;5132370;27;20374;-82
2022/11/20 08:34:40;;;;;;;1.90;1.70;;;;;;;;;;5132282;27;20445;-88
2022/11/20 08:37:06;;;;;;;2.05;1.70;;;;;;;;;;5132380;27;20499;-87
2022/11/20 08:39:32;;;;;;;2.33;1.87;;;;;;;;;;5132420;27;20458;-84
2022/11/20 08:41:58;;;;;;;2.72;1.83;;;;;;;;;;5132222;27;20378;-83
2022/11/20 08:44:24;;;;;;;1.53;1.43;;;;;;;;;;5113928;27;20859;-82
2022/11/20 08:46:50;;;;;;;1.45;1.30;;;;;;;;;;5132118;27;20451;-83
2022/11/20 08:49:17;;;;;;;1.58;1.40;;;;;;;;;;5131007;27;20386;-84
2022/11/20 08:51:43;;;;;;;1.90;1.42;;;;;;;;;;5117322;27;20376;-86
2022/11/20 08:54:09;;;;;;;3.05;1.52;;;;;;;;;;5127157;27;20382;-85
2022/11/20 08:56:35;;;;;;;2.30;1.65;;;;;;;;;;5129818;27;20391;-87
2022/11/20 08:59:01;;;;;;;1.92;1.60;;;;;;;;;;5127847;27;20371;-88
2022/11/20 09:01:29;;;;;;;2.00;1.80;;;;;;;;;;5129757;27;20390;-86
2022/11/20 09:03:59;;;;;;;1.90;1.80;;;;;;;;;;5133053;27;20378;-88
2022/11/20 09:06:25;;;;;;;2.57;2.33;;;;;;;;;;5129677;27;20378;-86
2022/11/20 09:08:55;;;;;;;3.00;2.70;;;;;;;;;;5131663;27;20367;-86
2022/11/20 09:11:21;;;;;;;2.95;2.03;;;;;;;;;;5134083;27;20429;-87
2022/11/20 09:13:47;;;;;;;3.08;2.22;;;;;;;;;;5131477;27;20375;-87
2022/11/20 09:16:13;;;;;;;2.20;2.00;;;;;;;;;;5130768;27;20445;-87
2022/11/20 09:18:39;;;;;;;3.10;2.60;;;;;;;;;;5130689;27;20371;-85
2022/11/20 09:21:06;;;;;;;2.42;2.10;;;;;;;;;;5131612;27;20374;-87
2022/11/20 09:23:34;;;;;;;2.25;1.90;;;;;;;;;;5131119;27;20419;-86
2022/11/20 09:26:02;;;;;;;2.13;1.98;;;;;;;;;;5128620;27;20378;-86
2022/11/20 09:28:28;;;;;;;3.30;2.35;;;;;;;;;;5131055;27;20393;-84
2022/11/20 09:30:54;;;;;;;2.55;2.35;;;;;;;;;;5115226;27;20408;-88
2022/11/20 09:33:20;;;;;;;3.03;2.63;;;;;;;;;;5120903;27;20378;-90
2022/11/20 09:35:46;;;;;;;4.95;3.25;;;;;;;;;;5123745;27;20874;-89
2022/11/20 09:38:14;;;;;;;4.93;3.37;;;;;;;;;;5131907;27;20369;-90
2022/11/20 09:41:00;;;;;;;3.80;3.40;;;;;;;;;;5131955;27;20724;-91
2022/11/20 09:43:38;;;;;;;3.00;2.50;;;;;;;;;;5123022;27;20744;-89
2022/11/20 09:46:17;;;;;;;2.72;2.53;;;;;;;;;;5120075;27;20433;-89
2022/11/20 09:49:02;;;;;;;3.35;2.60;;;;;;;;;;5135298;27;20379;-89
2022/11/20 09:51:37;;;;;;;3.15;2.90;;;;;;;;;;5123605;27;20448;-87
2022/11/20 09:54:15;;;;;;;4.43;4.03;;;;;;;;;;5134614;27;20366;-84
2022/11/20 09:56:44;;;;;;;3.40;2.63;;;;;;;;;;5125576;27;20891;-85
2022/11/20 09:59:19;;;;;;;2.10;1.92;;;;;;;;;;5135297;27;20911;-84
2022/11/20 10:01:45;;;;;;;3.00;2.58;;;;;;;;;;5116468;27;20879;-85
2022/11/20 10:04:19;;;;;;;3.10;1.70;;;;;;;;;;5134668;27;20379;-84
2022/11/20 10:06:48;;;;;;;3.45;2.75;;;;;;;;;;5135172;27;20875;-85
2022/11/20 10:09:19;;;;;;;4.47;3.27;;;;;;;;;;5135058;27;20505;-84
2022/11/20 10:11:45;;;;;;;3.33;2.75;;;;;;;;;;5135252;27;20418;-84
2022/11/20 10:14:14;;;;;;;2.95;2.53;;;;;;;;;;5135211;27;20436;-85
2022/11/20 10:16:47;;;;;;;2.60;2.40;;;;;;;;;;5135229;27;20370;-85
2022/11/20 10:19:19;;;;;;;4.32;2.53;;;;;;;;;;5135038;27;20457;-84
2022/11/20 10:21:53;;;;;;;2.20;2.00;;;;;;;;;;5134779;27;20390;-85
2022/11/20 10:24:31;;;;;;;3.03;2.10;;;;;;;;;;5135034;27;20394;-85
2022/11/20 10:27:06;;;;;;;2.22;2.03;;;;;;;;;;5130455;27;20435;-85
2022/11/20 10:29:37;;;;;;;2.30;2.10;;;;;;;;;;5134622;27;20419;-85
2022/11/20 10:32:04;;;;;;;3.07;1.90;;;;;;;;;;5134623;27;20422;-84
2022/11/20 10:34:35;;;;;;;3.13;1.60;;;;;;;;;;5134735;27;20406;-85
2022/11/20 10:37:05;;;;;;;1.80;1.58;;;;;;;;;;5135542;27;20425;-85
2022/11/20 10:39:34;;;;;;;1.98;1.70;;;;;;;;;;5138016;27;20370;-85
2022/11/20 10:42:01;;;;;;;2.47;1.98;;;;;;;;;;5137176;27;20806;-85
2022/11/20 10:47:17;;;;;;;2.30;2.05;;;;;;;;;;5137781;27;20887;-84
2022/11/20 10:49:49;;;;;;;2.55;2.15;;;;;;;;;;5135028;27;20406;-85
2022/11/20 10:52:15;;;;;;;2.90;2.20;;;;;;;;;;5134769;27;20381;-85
2022/11/20 10:54:47;;;;;;;2.00;1.83;;;;;;;;;;5134967;27;20366;-85
2022/11/20 10:57:25;;;;;;;3.90;2.30;;;;;;;;;;5131303;27;20721;-85
2022/11/20 10:59:51;;;;;;;1.92;1.60;;;;;;;;;;5134205;27;20380;-85
2022/11/20 11:02:21;;;;;;;1.73;1.48;;;;;;;;;;5134426;27;20383;-85
2022/11/20 11:04:49;;;;;;;1.65;1.33;;;;;;;;;;5137799;27;20454;-85
2022/11/20 11:07:51;;;;;;;1.60;1.30;;;;;;;;;;5133182;27;20415;-85
2022/11/20 11:10:19;;;;;;;1.20;1.10;;;;;;;;;;5050736;28;20420;-85
2022/11/20 11:12:47;;;;;;;2.73;1.00;;;;;;;;;;5118367;27;20419;-84
2022/11/20 11:15:15;;;;;;;2.30;1.40;;;;;;;;;;5134025;27;20890;-84
2022/11/20 11:17:47;;;;;;;2.60;1.90;;;;;;;;;;5134012;27;20385;-85
2022/11/20 11:20:20;;;;;;;1.50;1.40;;;;;;;;;;5134037;27;20363;-84
2022/11/20 11:22:48;;;;;;;1.73;1.10;;;;;;;;;;5133765;27;20409;-85
2022/11/20 11:25:21;;;;;;;1.38;1.27;;;;;;;;;;5133970;27;20374;-85
2022/11/20 11:27:48;;;;;;;1.50;1.30;;;;;;;;;;5133680;27;20413;-85
2022/11/20 11:30:17;;;;;;;1.80;1.00;;;;;;;;;;5133706;27;20493;-83
2022/11/20 11:32:44;;;;;;;1.33;1.00;;;;;;;;;;5133720;27;20433;-84
2022/11/20 11:35:20;;;;;;;2.25;1.20;;;;;;;;;;5133797;27;20870;-85
2022/11/20 11:37:47;;;;;;;1.13;0.90;;;;;;;;;;5133418;27;20731;-85
2022/11/20 11:40:13;;;;;;;1.30;1.20;;;;;;;;;;5133569;27;20374;-84
2022/11/20 11:42:53;;;;;;;3.20;1.83;;;;;;;;;;5133333;27;20379;-84
2022/11/20 11:45:19;;;;;;;2.37;1.50;;;;;;;;;;5133321;27;20442;-85
2022/11/20 11:47:48;;;;;;;1.40;1.30;;;;;;;;;;5133477;27;20439;-85
2022/11/20 11:50:16;;;;;;;1.73;1.20;;;;;;;;;;5133614;27;20456;-84
2022/11/20 11:53:01;;;;;;;1.63;1.20;;;;;;;;;;5133075;27;20859;-84
2022/11/20 11:55:34;;;;;;;2.53;1.30;;;;;;;;;;5133215;27;20436;-84
2022/11/20 11:58:09;;;;;;;1.77;1.30;;;;;;;;;;5133189;27;20423;-84
2022/11/20 12:00:37;;;;;;;1.83;1.42;;;;;;;;;;5133241;27;20410;-84
2022/11/20 12:03:09;;;;;;;2.30;1.40;;;;;;;;;;5129757;27;20474;-84
2022/11/20 12:05:46;;;;;;;1.65;1.30;;;;;;;;;;5133018;27;20486;-85
2022/11/20 12:08:32;;;;;;;2.22;1.63;;;;;;;;;;5133133;27;20797;-84
2022/11/20 12:11:04;;;;;;;2.60;1.45;;;;;;;;;;5132517;27;20415;-84
2022/11/20 12:13:41;;;;;;;2.10;1.42;;;;;;;;;;5132957;27;20373;-84
2022/11/20 12:16:10;;;;;;;2.17;1.35;;;;;;;;;;5132869;27;20839;-84
2022/11/20 12:18:36;;;;;;;3.13;1.50;;;;;;;;;;5132792;27;20378;-84
2022/11/20 12:21:17;;;;;;;2.13;1.52;;;;;;;;;;5132591;27;20375;-84
2022/11/20 12:23:55;;;;;;;2.28;1.50;;;;;;;;;;5132676;27;20377;-84
2022/11/20 12:26:40;;;;;;;2.40;1.30;;;;;;;;;;5132649;27;20390;-85
2022/11/20 12:29:30;;;;;;;2.00;1.40;;;;;;;;;;5132549;27;20937;-84
2022/11/20 12:31:59;;;;;;;1.83;1.60;;;;;;;;;;5132423;27;20477;-84
2022/11/20 12:34:37;;;;;;;1.75;1.40;;;;;;;;;;5132626;27;20382;-84
2022/11/20 12:37:12;;;;;;;2.93;1.67;;;;;;;;;;5123253;27;20810;-84
2022/11/20 12:39:38;;;;;;;1.30;1.10;;;;;;;;;;5132425;27;20378;-84
2022/11/20 12:45:26;;;;;;;2.45;1.40;;;;;;;;;;5132490;27;20374;-85
2022/11/20 12:48:10;;;;;;;1.90;1.40;;;;;;;;;;5132342;27;20371;-84
2022/11/20 12:50:50;;;;;;;2.10;1.35;;;;;;;;;;5131983;27;20413;-85
2022/11/20 12:53:22;;;;;;;1.77;1.27;;;;;;;;;;5132318;27;20697;-84
2022/11/20 12:55:54;;;;;;;1.98;1.20;;;;;;;;;;5129141;27;20375;-84
2022/11/20 12:58:45;;;;;;;2.45;1.33;;;;;;;;;;5132277;27;20919;-85
2022/11/20 13:01:47;;;;;;;1.50;1.30;;;;;;;;;;5128775;27;20410;-85
2022/11/20 13:04:28;;;;;;;2.83;1.70;;;;;;;;;;5136232;27;20417;-86
2022/11/20 13:06:55;;;;;;;2.15;1.38;;;;;;;;;;5131923;27;20379;-85
2022/11/20 13:09:23;;;;;;;2.20;1.40;;;;;;;;;;5131941;27;20482;-84
2022/11/20 13:11:55;;;;;;;2.90;1.50;;;;;;;;;;5131857;27;20459;-86
2022/11/20 13:14:21;;;;;;;2.88;1.52;;;;;;;;;;5132057;27;20432;-84
2022/11/20 13:16:50;;;;;;;2.27;1.50;;;;;;;;;;5131880;27;20378;-84
2022/11/20 13:19:17;;;;;;;1.73;1.10;;;;;;;;;;5131974;27;20375;-84
2022/11/20 13:21:46;;;;;;;1.60;1.10;;;;;;;;;;5133288;27;20421;-85
2022/11/20 13:24:27;;;;;;;2.00;1.23;;;;;;;;;;5136212;27;20381;-84
2022/11/20 13:27:08;;;;;;;2.60;1.08;;;;;;;;;;5136309;27;20381;-84
2022/11/20 13:29:35;;;;;;;1.90;1.10;;;;;;;;;;5136104;27;20385;-84
2022/11/20 13:32:13;;;;;;;1.80;1.08;;;;;;;;;;5136025;27;20366;-84
2022/11/20 13:34:40;;;;;;;1.30;1.10;;;;;;;;;;5136193;27;20396;-85
2022/11/20 13:37:06;;;;;;;2.37;1.30;;;;;;;;;;5126952;27;20432;-84
2022/11/20 13:39:33;;;;;;;1.45;1.17;;;;;;;;;;5135893;27;20419;-85
2022/11/20 13:42:03;;;;;;;2.58;1.70;;;;;;;;;;5135704;27;20377;-84
2022/11/20 13:44:35;;;;;;;3.38;2.00;;;;;;;;;;5117651;27;20870;-85
2022/11/20 13:47:01;;;;;;;2.10;1.88;;;;;;;;;;5135649;27;20390;-84
2022/11/20 13:49:35;;;;;;;1.97;1.77;;;;;;;;;;5135665;27;20371;-84
2022/11/20 13:52:09;;;;;;;2.08;1.30;;;;;;;;;;5135760;27;20719;-84
2022/11/20 13:54:35;;;;;;;2.40;1.75;;;;;;;;;;5135955;27;20409;-84
2022/11/20 13:57:01;;;;;;;2.00;1.33;;;;;;;;;;5135402;27;20433;-85
2022/11/20 13:59:33;;;;;;;2.50;1.50;;;;;;;;;;5135633;27;20389;-84
2022/11/20 14:02:00;;;;;;;3.55;1.70;;;;;;;;;;5135420;27;20399;-84
2022/11/20 14:04:31;;;;;;;2.77;1.90;;;;;;;;;;5135525;27;20366;-85
2022/11/20 14:06:57;;;;;;;2.55;1.85;;;;;;;;;;5135852;27;20378;-84
2022/11/20 14:09:27;;;;;;;3.08;2.08;;;;;;;;;;5135243;27;20455;-84
2022/11/20 14:11:54;;;;;;;1.90;1.30;;;;;;;;;;5136781;27;20378;-84
2022/11/20 14:14:21;;;;;;;1.20;1.10;;;;;;;;;;5137760;27;20374;-85
2022/11/20 14:16:47;;;;;;;1.02;0.80;;;;;;;;;;5138734;27;20381;-84
2022/11/20 14:19:19;;;;;;;2.85;1.92;;;;;;;;;;5136340;27;20371;-85
2022/11/20 14:22:09;;;;;;;1.92;1.20;;;;;;;;;;5135986;27;20796;-84
2022/11/20 14:24:35;;;;;;;4.07;3.10;;;;;;;;;;5122418;27;20483;-84
2022/11/20 14:27:01;;;;;;;4.05;2.28;;;;;;;;;;5135215;27;20386;-84
2022/11/20 14:29:34;;;;;;;2.57;1.70;;;;;;;;;;5135160;27;20373;-84
2022/11/20 14:32:00;;;;;;;2.60;1.80;;;;;;;;;;5134404;27;20362;-85
2022/11/20 14:34:28;;;;;;;1.63;1.23;;;;;;;;;;5135238;27;20461;-84
2022/11/20 14:36:56;;;;;;;2.55;1.40;;;;;;;;;;5125858;27;20919;-84
2022/11/20 14:39:23;;;;;;;2.67;1.08;;;;;;;;;;5135006;27;20370;-84
2022/11/20 14:41:53;;;;;;;1.73;1.40;;;;;;;;;;5134965;27;21162;-84
2022/11/20 14:44:21;;;;;;;2.17;1.60;;;;;;;;;;5134983;27;20469;-84
2022/11/20 14:46:47;;;;;;;1.88;1.20;;;;;;;;;;5134765;27;20439;-84
2022/11/20 14:49:13;;;;;;;1.67;1.25;;;;;;;;;;5134700;27;21103;-84
2022/11/20 14:51:44;;;;;;;2.83;1.42;;;;;;;;;;5135267;27;20406;-84
2022/11/20 14:54:17;;;;;;;2.97;1.70;;;;;;;;;;5132914;27;21011;-84
2022/11/20 14:56:56;;;;;;;1.90;1.48;;;;;;;;;;5137789;27;20369;-85
2022/11/20 14:59:24;;;;;;;2.47;1.88;;;;;;;;;;5114139;28;20892;-85
2022/11/20 15:02:16;;;;;;;1.98;1.40;;;;;;;;;;5124395;27;20452;-85
2022/11/20 15:04:57;;;;;;;2.65;2.13;;;;;;;;;;5113578;27;20388;-84
2022/11/20 15:07:24;;;;;;;2.42;2.15;;;;;;;;;;5125660;27;20406;-85
2022/11/20 15:09:59;;;;;;;1.83;1.33;;;;;;;;;;5137124;27;20405;-84